Time;durP1;ratioP1;P1;durP2;ratioP2;P2;SDS_P1;SDS_P2;PMS_P1;PMS_P2;Temp;Humidity;BMP_temperature;BMP_pressure;BME280_temperature;BME280_humidity;BME280_pressure;Samples;Min_cycle;Max_cycle;Signal;HPM_P1;HPM_P2
2022/08/13 00:01:19;;;;;;;1999.90;999.90;;;17.80;99.90;;;;;;5074677;28;20552;-70
2022/08/13 00:03:47;;;;;;;1999.90;999.90;;;17.70;99.90;;;;;;5074469;28;21063;-70
2022/08/13 00:06:23;;;;;;;1999.90;999.90;;;17.40;99.90;;;;;;5065114;28;20462;-70
2022/08/13 00:08:51;;;;;;;1999.90;999.90;;;17.30;99.90;;;;;;5065951;28;20531;-70
2022/08/13 00:13:59;;;;;;;1999.90;999.90;;;17.20;99.90;;;;;;5073976;28;20868;-70
2022/08/13 00:16:25;;;;;;;1999.90;999.90;;;17.30;99.90;;;;;;5073952;28;20568;-70
2022/08/13 00:18:53;;;;;;;1999.90;999.90;;;17.30;99.90;;;;;;5065338;28;20489;-70
2022/08/13 00:21:21;;;;;;;1999.90;999.90;;;17.30;99.90;;;;;;5065263;28;20449;-70
2022/08/13 00:23:57;;;;;;;1999.90;999.90;;;17.30;99.90;;;;;;5074338;28;20449;-70
2022/08/13 00:26:25;;;;;;;1999.90;999.90;;;17.40;99.90;;;;;;5063994;28;20965;-70
2022/08/13 00:28:53;;;;;;;1999.90;999.90;;;17.40;99.90;;;;;;5069139;28;20522;-70
2022/08/13 00:31:20;;;;;;;1999.90;999.90;;;17.40;99.90;;;;;;5062437;28;20549;-70
2022/08/13 00:33:47;;;;;;;1999.90;999.90;;;17.40;99.90;;;;;;5063346;28;20466;-70
2022/08/13 00:36:16;;;;;;;1999.90;999.90;;;17.40;99.90;;;;;;5065256;28;20610;-70
2022/08/13 00:38:44;;;;;;;1999.90;999.90;;;17.50;99.90;;;;;;5073532;28;21011;-70
2022/08/13 00:41:37;;;;;;;1999.90;999.90;;;17.50;99.90;;;;;;5073740;28;20449;-70
2022/08/13 00:43:59;;;;;;;1999.90;999.90;;;17.50;99.90;;;;;;5066033;28;20822;-70
2022/08/13 00:46:26;;;;;;;1999.90;999.90;;;17.40;99.90;;;;;;5065043;28;20449;-70
2022/08/13 00:48:54;;;;;;;1999.90;999.90;;;17.30;99.90;;;;;;5073648;28;20474;-70
2022/08/13 00:51:23;;;;;;;1999.90;999.90;;;16.90;99.90;;;;;;5073544;28;20456;-70
2022/08/13 00:53:50;;;;;;;1999.90;999.90;;;16.60;99.90;;;;;;5073262;28;20586;-72
2022/08/13 00:56:17;;;;;;;1999.90;999.90;;;16.60;99.90;;;;;;5072724;28;20477;-72
2022/08/13 00:58:44;;;;;;;1999.90;999.90;;;16.70;99.90;;;;;;5065291;28;20499;-73
2022/08/13 01:01:12;;;;;;;1999.90;999.90;;;16.60;99.90;;;;;;5065067;28;20558;-72
2022/08/13 01:03:39;;;;;;;1999.90;999.90;;;16.20;99.90;;;;;;5073674;28;20445;-72
2022/08/13 01:06:08;;;;;;;1999.90;999.90;;;15.90;99.90;;;;;;5072712;28;20536;-72
2022/08/13 01:08:40;;;;;;;1999.90;999.90;;;15.90;99.90;;;;;;5073271;28;20473;-73
2022/08/13 01:11:09;;;;;;;1999.90;999.90;;;15.90;99.90;;;;;;5072961;28;20449;-72
2022/08/13 01:13:38;;;;;;;1999.90;999.90;;;15.90;99.90;;;;;;5055899;28;20461;-73
2022/08/13 01:16:07;;;;;;;1999.90;999.90;;;15.90;99.90;;;;;;5055358;28;20902;-72
2022/08/13 01:18:36;;;;;;;1999.90;999.90;;;16.00;99.90;;;;;;5060201;28;20996;-72
2022/08/13 01:21:08;;;;;;;1999.90;999.90;;;16.10;99.90;;;;;;5052895;28;20458;-72
2022/08/13 01:23:37;;;;;;;1999.90;999.90;;;16.30;99.90;;;;;;5052932;28;20454;-72
2022/08/13 01:26:04;;;;;;;1999.90;999.90;;;16.30;99.90;;;;;;5052418;28;20466;-72
2022/08/13 01:28:31;;;;;;;1999.90;999.90;;;16.40;99.90;;;;;;5063520;28;20473;-72
2022/08/13 01:31:04;;;;;;;1999.90;999.90;;;16.20;99.90;;;;;;5064422;28;20442;-72
2022/08/13 01:33:35;;;;;;;1999.90;999.90;;;16.30;99.90;;;;;;5072746;28;20898;-73
2022/08/13 01:36:03;;;;;;;1999.90;999.90;;;16.30;99.90;;;;;;5072453;28;20434;-72
2022/08/13 01:38:30;;;;;;;1999.90;999.90;;;16.40;99.90;;;;;;5072419;28;20485;-72
2022/08/13 01:40:59;;;;;;;1999.90;999.90;;;16.50;99.90;;;;;;5068303;28;20468;-72
2022/08/13 01:43:29;;;;;;;1999.90;999.90;;;16.50;99.90;;;;;;5056372;28;20487;-72
2022/08/13 01:45:58;;;;;;;1999.90;999.90;;;16.10;99.90;;;;;;5072452;28;20483;-72
2022/08/13 01:51:21;;;;;;;1999.90;999.90;;;16.00;99.90;;;;;;5072331;28;20851;-73
2022/08/13 01:53:49;;;;;;;1999.90;999.90;;;16.10;99.90;;;;;;5060312;28;20464;-72
2022/08/13 01:56:21;;;;;;;1999.90;999.90;;;16.10;99.90;;;;;;5063419;28;20488;-73
2022/08/13 01:58:50;;;;;;;1999.90;999.90;;;16.20;99.90;;;;;;5072207;28;20481;-73
2022/08/13 02:01:17;;;;;;;1999.90;999.90;;;16.20;99.90;;;;;;5072150;28;20581;-73
2022/08/13 02:03:49;;;;;;;1999.90;999.90;;;16.30;99.90;;;;;;5068936;28;20555;-74
2022/08/13 02:06:21;;;;;;;1999.90;999.90;;;16.40;99.90;;;;;;5063259;28;20446;-72
2022/08/13 02:08:50;;;;;;;1999.90;999.90;;;16.40;99.90;;;;;;5072945;28;20469;-73
2022/08/13 02:11:18;;;;;;;1999.90;999.90;;;16.40;99.90;;;;;;5073161;28;20445;-73
2022/08/13 02:13:48;;;;;;;1999.90;999.90;;;16.40;99.90;;;;;;5073340;28;20499;-73
2022/08/13 02:16:15;;;;;;;1999.90;999.90;;;16.40;99.90;;;;;;5073044;28;20449;-73
2022/08/13 02:18:41;;;;;;;1999.90;999.90;;;16.30;99.90;;;;;;5063470;28;21009;-73
2022/08/13 02:21:08;;;;;;;1999.90;999.90;;;16.20;99.90;;;;;;5064380;28;20457;-72
2022/08/13 02:23:35;;;;;;;1999.90;999.90;;;16.20;99.90;;;;;;5072890;28;20441;-73
2022/08/13 02:26:05;;;;;;;1999.90;999.90;;;16.10;99.90;;;;;;5071921;28;20949;-72
2022/08/13 02:28:37;;;;;;;1999.90;999.90;;;16.00;99.90;;;;;;5071869;28;20466;-72
2022/08/13 02:31:04;;;;;;;1999.90;999.90;;;15.90;99.90;;;;;;5071704;28;20449;-73
2022/08/13 02:33:30;;;;;;;1999.90;999.90;;;16.00;99.90;;;;;;5059324;28;20466;-72
2022/08/13 02:35:58;;;;;;;1999.90;999.90;;;15.90;99.90;;;;;;5067688;28;20445;-72
2022/08/13 02:38:25;;;;;;;1999.90;999.90;;;15.90;99.90;;;;;;5071621;28;20489;-72
2022/08/13 02:43:37;;;;;;;1999.90;999.90;;;15.80;99.90;;;;;;5071545;28;20928;-72
2022/08/13 02:46:04;;;;;;;1999.90;999.90;;;15.80;99.90;;;;;;5063078;28;20470;-73
2022/08/13 02:48:31;;;;;;;1999.90;999.90;;;15.70;99.90;;;;;;5063453;28;20507;-72
2022/08/13 02:50:58;;;;;;;1999.90;999.90;;;15.60;99.90;;;;;;5071622;28;20824;-72
2022/08/13 02:53:25;;;;;;;1999.90;999.90;;;15.40;99.90;;;;;;5071525;28;20507;-73
2022/08/13 02:55:52;;;;;;;1999.90;999.90;;;15.30;99.90;;;;;;5071133;28;20499;-72
2022/08/13 02:58:20;;;;;;;1999.90;999.90;;;15.20;99.90;;;;;;5071651;28;20491;-72
2022/08/13 03:00:48;;;;;;;1999.90;999.90;;;15.10;99.90;;;;;;5062568;28;20462;-69
2022/08/13 03:03:16;;;;;;;1999.90;999.90;;;15.00;99.90;;;;;;5070132;28;20446;-72
2022/08/13 03:05:43;;;;;;;1999.90;999.90;;;15.10;99.90;;;;;;5071254;28;20441;-72
2022/08/13 03:08:11;;;;;;;1999.90;999.90;;;15.20;99.90;;;;;;5071241;28;20977;-71
2022/08/13 03:10:40;;;;;;;1999.90;999.90;;;15.00;99.90;;;;;;5071843;28;20802;-72
2022/08/13 03:13:16;;;;;;;1999.90;999.90;;;15.00;99.90;;;;;;5069492;28;20467;-71
2022/08/13 03:15:44;;;;;;;1999.90;999.90;;;14.90;99.90;;;;;;5053535;28;20442;-71
2022/08/13 03:18:12;;;;;;;1999.90;999.90;;;14.90;99.90;;;;;;5069074;28;20860;-71
2022/08/13 03:20:39;;;;;;;1999.90;999.90;;;14.90;99.90;;;;;;5074151;28;20503;-71
2022/08/13 03:23:07;;;;;;;1999.90;999.90;;;14.90;99.90;;;;;;5074847;28;20444;-71
2022/08/13 03:25:34;;;;;;;1999.90;999.90;;;14.80;99.90;;;;;;5074502;28;20510;-71
2022/08/13 03:28:02;;;;;;;1999.90;999.90;;;14.80;99.90;;;;;;5065348;28;20478;-71
2022/08/13 03:30:30;;;;;;;1999.90;999.90;;;15.00;99.90;;;;;;5066339;28;20437;-72
2022/08/13 03:32:57;;;;;;;1999.90;999.90;;;14.90;99.90;;;;;;5074688;28;20453;-72
2022/08/13 03:35:26;;;;;;;1999.90;999.90;;;14.90;99.90;;;;;;5074433;28;20437;-71
2022/08/13 03:37:55;;;;;;;1999.90;999.90;;;14.80;99.90;;;;;;5074433;28;20489;-72
2022/08/13 03:40:24;;;;;;;1999.90;999.90;;;14.80;99.90;;;;;;5074704;28;20987;-71
2022/08/13 03:42:51;;;;;;;1999.90;999.90;;;14.80;99.90;;;;;;5067825;28;20469;-71
2022/08/13 03:45:21;;;;;;;1999.90;999.90;;;14.80;99.90;;;;;;5065903;28;20445;-72
2022/08/13 03:47:48;;;;;;;1999.90;999.90;;;14.90;99.90;;;;;;5074237;28;20542;-71
2022/08/13 03:50:15;;;;;;;1999.90;999.90;;;15.00;99.90;;;;;;5074268;28;20822;-71
2022/08/13 03:52:43;;;;;;;1999.90;999.90;;;14.90;99.90;;;;;;5074623;28;20445;-71
2022/08/13 03:55:12;;;;;;;1999.90;999.90;;;14.90;99.90;;;;;;5074078;28;20457;-71
2022/08/13 03:57:42;;;;;;;1999.90;999.90;;;14.90;99.90;;;;;;5062558;28;20548;-71
2022/08/13 04:00:11;;;;;;;1999.90;999.90;;;14.90;99.90;;;;;;5072355;28;20448;-71
2022/08/13 04:02:40;;;;;;;1999.90;999.90;;;14.90;99.90;;;;;;5074283;28;20491;-71
2022/08/13 04:05:08;;;;;;;1999.90;999.90;;;14.90;99.90;;;;;;5074117;28;20449;-71
2022/08/13 04:07:35;;;;;;;1999.90;999.90;;;14.90;99.90;;;;;;5074554;28;20480;-71
2022/08/13 04:10:04;;;;;;;1999.90;999.90;;;14.90;99.90;;;;;;5070530;28;20532;-72
2022/08/13 04:12:31;;;;;;;1999.90;999.90;;;15.10;99.90;;;;;;5063800;28;20462;-71
2022/08/13 04:14:58;;;;;;;1999.90;999.90;;;15.10;99.90;;;;;;5070526;28;20449;-71
2022/08/13 04:17:24;;;;;;;1999.90;999.90;;;15.30;99.90;;;;;;5074001;28;20477;-71
2022/08/13 04:19:51;;;;;;;1999.90;999.90;;;15.30;99.90;;;;;;5074222;28;20537;-72
2022/08/13 04:22:20;;;;;;;1999.90;999.90;;;15.30;99.90;;;;;;5074073;28;20444;-73
2022/08/13 04:24:47;;;;;;;1999.90;999.90;;;15.50;99.90;;;;;;5068498;28;20497;-71
2022/08/13 04:27:15;;;;;;;1999.90;999.90;;;15.60;99.90;;;;;;5065786;28;20442;-72
2022/08/13 04:29:42;;;;;;;1999.90;999.90;;;15.70;99.90;;;;;;5074188;28;20525;-71
2022/08/13 04:32:08;;;;;;;1999.90;999.90;;;15.80;99.90;;;;;;5073176;28;20498;-71
2022/08/13 04:34:35;;;;;;;1999.90;999.90;;;15.80;99.90;;;;;;5073406;28;20499;-72
2022/08/13 04:37:02;;;;;;;1999.90;999.90;;;16.20;99.90;;;;;;5073916;28;20472;-72
2022/08/13 04:39:28;;;;;;;1999.90;999.90;;;16.20;99.90;;;;;;5066356;28;20904;-72
2022/08/13 04:41:55;;;;;;;1999.90;999.90;;;16.40;99.90;;;;;;5069569;28;20504;-72
2022/08/13 04:44:23;;;;;;;1999.90;999.90;;;16.50;99.90;;;;;;5073495;28;20449;-72
2022/08/13 04:46:50;;;;;;;1999.90;999.90;;;16.80;99.90;;;;;;5073325;28;20453;-71
2022/08/13 04:49:17;;;;;;;1999.90;999.90;;;16.90;99.90;;;;;;5064573;28;20496;-71
2022/08/13 04:51:44;;;;;;;1999.90;999.90;;;16.70;99.90;;;;;;5067894;28;20495;-72
2022/08/13 04:54:10;;;;;;;1999.90;999.90;;;16.60;99.90;;;;;;5073111;28;20548;-71
2022/08/13 04:56:37;;;;;;;1999.90;999.90;;;16.80;99.90;;;;;;5072782;28;20453;-71
2022/08/13 04:59:04;;;;;;;1999.90;999.90;;;17.00;99.90;;;;;;5073189;28;20512;-71
2022/08/13 05:01:32;;;;;;;1999.90;999.90;;;17.10;99.90;;;;;;5060713;28;20530;-71
2022/08/13 05:03:59;;;;;;;1999.90;999.90;;;17.20;99.90;;;;;;5064675;28;20929;-72
2022/08/13 05:06:26;;;;;;;1999.90;999.90;;;17.00;99.90;;;;;;5072560;28;20503;-72
2022/08/13 05:08:53;;;;;;;1999.90;999.90;;;16.90;99.90;;;;;;5072814;28;20977;-71
2022/08/13 05:11:20;;;;;;;1999.90;999.90;;;16.80;99.90;;;;;;5073186;28;20479;-72
2022/08/13 05:13:47;;;;;;;1999.90;999.90;;;17.00;99.90;;;;;;5068619;28;20481;-72
2022/08/13 05:16:16;;;;;;;1999.90;999.90;;;17.20;99.90;;;;;;5057642;28;20966;-69
2022/08/13 05:18:50;;;;;;;1999.90;999.90;;;17.40;99.90;;;;;;5061047;28;20531;-69
2022/08/13 05:21:17;;;;;;;1999.90;999.90;;;17.60;99.90;;;;;;5071284;28;20450;-69
2022/08/13 05:23:44;;;;;;;1999.90;999.90;;;17.70;99.90;;;;;;5072593;28;20854;-69
2022/08/13 05:26:11;;;;;;;1999.90;999.90;;;17.90;99.90;;;;;;5072269;28;20448;-69
2022/08/13 05:28:38;;;;;;;1999.90;999.90;;;18.20;99.90;;;;;;5063693;28;20477;-69
2022/08/13 05:31:06;;;;;;;1999.90;999.90;;;18.60;99.90;;;;;;5064289;28;20471;-70
2022/08/13 05:33:35;;;;;;;1999.90;999.90;;;18.90;99.90;;;;;;5072351;28;20929;-72
2022/08/13 05:36:05;;;;;;;1999.90;999.90;;;19.40;99.90;;;;;;5072385;28;20453;-72
2022/08/13 05:38:34;;;;;;;1999.90;999.90;;;19.40;99.90;;;;;;5075967;22;20923;-70
2022/08/13 05:41:03;;;;;;;1999.90;999.90;;;19.40;99.90;;;;;;5022978;28;20918;-71
2022/08/13 05:43:32;;;;;;;1999.90;999.90;;;19.40;99.90;;;;;;5032642;28;20447;-70
2022/08/13 05:46:02;;;;;;;1999.90;999.90;;;19.40;99.90;;;;;;5032717;28;20446;-72
2022/08/13 05:48:31;;;;;;;1999.90;999.90;;;19.70;99.90;;;;;;5032697;28;20467;-72
2022/08/13 05:51:00;;;;;;;1999.90;999.90;;;20.10;99.90;;;;;;5032684;28;20443;-72
2022/08/13 05:53:29;;;;;;;1999.90;999.90;;;20.50;99.90;;;;;;5032619;28;20479;-72
2022/08/13 05:55:56;;;;;;;1999.90;999.90;;;20.80;99.90;;;;;;5031191;28;20463;-70
2022/08/13 05:58:23;;;;;;;1999.90;999.90;;;21.00;99.90;;;;;;5043725;28;20486;-72
2022/08/13 06:03:36;;;;;;;1999.90;999.90;;;20.80;99.90;;;;;;5052212;28;20433;-69
2022/08/13 06:06:07;;;;;;;1999.90;999.90;;;20.80;99.90;;;;;;5052150;28;20456;-69
2022/08/13 06:08:37;;;;;;;1999.90;999.90;;;20.80;99.90;;;;;;5044194;28;20486;-71
2022/08/13 06:11:07;;;;;;;1999.90;999.90;;;21.20;99.90;;;;;;5043678;28;20450;-69
2022/08/13 06:13:34;;;;;;;1999.90;999.90;;;21.50;99.90;;;;;;5052120;28;20856;-71
2022/08/13 06:16:03;;;;;;;1999.90;999.90;;;21.80;99.90;;;;;;5052244;28;20446;-72
2022/08/13 06:18:32;;;;;;;1999.90;999.90;;;21.50;99.90;;;;;;5052203;28;20482;-69
2022/08/13 06:21:01;;;;;;;1999.90;999.90;;;21.40;99.90;;;;;;5052096;28;20451;-71
2022/08/13 06:23:29;;;;;;;1999.90;999.90;;;21.90;99.90;;;;;;5041840;28;20521;-70
2022/08/13 06:25:59;;;;;;;1999.90;999.90;;;22.30;99.30;;;;;;5048254;28;20446;-72
2022/08/13 06:28:28;;;;;;;1999.90;999.90;;;22.60;98.10;;;;;;5052513;28;20521;-70
2022/08/13 06:30:58;;;;;;;1999.90;999.90;;;22.80;97.90;;;;;;5052527;28;20484;-72
2022/08/13 06:33:27;;;;;;;1999.90;999.90;;;23.10;97.60;;;;;;5052845;28;20489;-71
2022/08/13 06:35:56;;;;;;;1999.90;999.90;;;22.60;98.10;;;;;;5061011;28;20489;-71
2022/08/13 06:38:27;;;;;;;1999.90;999.90;;;22.60;98.80;;;;;;5043022;28;20917;-69
2022/08/13 06:40:55;;;;;;;1999.90;999.90;;;22.90;98.20;;;;;;5052398;28;20442;-70
2022/08/13 06:43:23;;;;;;;1999.90;999.90;;;23.30;97.50;;;;;;5052612;28;20446;-70
2022/08/13 06:45:50;;;;;;;1999.90;999.90;;;23.40;96.90;;;;;;5051895;28;20503;-70
2022/08/13 06:48:17;;;;;;;1999.90;999.90;;;23.60;96.60;;;;;;5052180;28;20819;-70
2022/08/13 06:50:44;;;;;;;1999.90;999.90;;;23.90;96.10;;;;;;5044673;28;20517;-72
2022/08/13 06:53:11;;;;;;;1999.90;999.90;;;24.10;95.10;;;;;;5043925;28;20947;-70
2022/08/13 06:55:41;;;;;;;1999.90;999.90;;;24.40;95.10;;;;;;5055215;28;20442;-72
2022/08/13 06:58:09;;;;;;;1999.90;999.90;;;24.70;94.30;;;;;;5052088;28;20495;-72
2022/08/13 07:00:39;;;;;;;1999.90;999.90;;;24.90;93.50;;;;;;5047705;28;20449;-72
2022/08/13 07:03:06;;;;;;;1999.90;999.90;;;24.90;93.50;;;;;;5056302;28;21035;-68
2022/08/13 07:05:35;;;;;;;1999.90;999.90;;;24.80;93.60;;;;;;5044925;28;20470;-72
2022/08/13 07:08:04;;;;;;;1999.90;999.90;;;24.70;93.60;;;;;;5053410;28;20438;-69
2022/08/13 07:10:32;;;;;;;1999.90;999.90;;;24.90;93.30;;;;;;5056297;28;20450;-68
2022/08/13 07:13:00;;;;;;;1999.90;999.90;;;25.20;93.30;;;;;;5056116;28;20442;-68
2022/08/13 07:15:27;;;;;;;1999.90;999.90;;;25.10;93.00;;;;;;5055484;28;20549;-72
2022/08/13 07:17:56;;;;;;;1999.90;999.90;;;25.50;93.00;;;;;;5048591;28;20483;-70
2022/08/13 07:20:23;;;;;;;1999.90;999.90;;;25.60;92.50;;;;;;5043547;28;20935;-70
2022/08/13 07:22:50;;;;;;;1999.90;999.90;;;25.70;91.90;;;;;;5035696;28;20496;-72
2022/08/13 07:25:18;;;;;;;1999.90;999.90;;;25.30;92.60;;;;;;5035291;28;20447;-70
2022/08/13 07:27:45;;;;;;;1999.90;999.90;;;25.40;92.80;;;;;;5035758;28;20509;-72
2022/08/13 07:30:14;;;;;;;1999.90;999.90;;;25.50;92.80;;;;;;5035456;28;20512;-70
2022/08/13 07:32:41;;;;;;;1999.90;999.90;;;25.70;92.30;;;;;;5038726;28;20462;-70
2022/08/13 07:35:11;;;;;;;1999.90;999.90;;;25.90;92.50;;;;;;5044453;28;20493;-70
2022/08/13 07:37:39;;;;;;;1999.90;999.90;;;26.00;92.40;;;;;;5055335;28;20461;-69
2022/08/13 07:40:08;;;;;;;1999.90;999.90;;;26.10;91.90;;;;;;5054823;28;20514;-70
2022/08/13 07:42:38;;;;;;;1999.90;999.90;;;26.20;91.70;;;;;;5055262;28;20930;-70
2022/08/13 07:45:06;;;;;;;1999.90;999.90;;;25.90;92.00;;;;;;5055045;28;20477;-71
2022/08/13 07:47:34;;;;;;;1999.90;999.90;;;26.00;92.20;;;;;;5039058;28;20463;-72
2022/08/13 07:50:10;;;;;;;1999.90;999.90;;;26.10;91.80;;;;;;5038014;28;20878;-70
2022/08/13 07:52:39;;;;;;;1999.90;999.90;;;26.20;91.80;;;;;;5034712;28;20541;-72
2022/08/13 07:55:07;;;;;;;1999.90;999.90;;;26.40;91.70;;;;;;5034860;28;20871;-69
2022/08/13 07:57:35;;;;;;;1999.90;999.90;;;26.50;91.30;;;;;;5034759;28;20493;-70
2022/08/13 08:00:03;;;;;;;1999.90;999.90;;;26.40;91.40;;;;;;5034360;28;20511;-71
2022/08/13 08:02:32;;;;;;;1999.90;999.90;;;26.50;91.60;;;;;;5046543;28;20446;-71
2022/08/13 08:04:59;;;;;;;1999.90;999.90;;;26.50;91.60;;;;;;5054511;28;20446;-72
2022/08/13 08:07:27;;;;;;;1999.90;999.90;;;26.70;91.60;;;;;;5053379;28;20860;-71
2022/08/13 08:09:55;;;;;;;1999.90;999.90;;;26.60;91.70;;;;;;5054641;28;20891;-69
2022/08/13 08:12:37;;;;;;;1999.90;999.90;;;26.70;91.50;;;;;;5054413;28;20480;-70
2022/08/13 08:15:06;;;;;;;1999.90;999.90;;;26.90;91.70;;;;;;5044191;28;20454;-71
2022/08/13 08:17:33;;;;;;;1999.90;999.90;;;27.00;91.50;;;;;;5034507;28;20459;-70
2022/08/13 08:20:00;;;;;;;1999.90;999.90;;;27.10;91.60;;;;;;5034383;28;20540;-72
2022/08/13 08:22:28;;;;;;;1999.90;999.90;;;26.80;91.70;;;;;;5034064;28;20951;-71
2022/08/13 08:24:56;;;;;;;1999.90;999.90;;;27.10;91.70;;;;;;5033898;28;20449;-70
2022/08/13 08:27:25;;;;;;;1999.90;999.90;;;27.10;91.90;;;;;;5032909;28;20450;-70
2022/08/13 08:29:52;;;;;;;1999.90;999.90;;;27.00;91.90;;;;;;5042275;28;20463;-70
2022/08/13 08:32:19;;;;;;;1999.90;999.90;;;27.10;91.90;;;;;;5053153;28;20446;-70
2022/08/13 08:34:50;;;;;;;1999.90;999.90;;;27.10;91.70;;;;;;5053652;28;20492;-70
2022/08/13 08:42:45;;;;;;;1999.90;999.90;;;27.20;91.80;;;;;;5033983;28;20434;-71
2022/08/13 08:45:16;;;;;;;1999.90;999.90;;;27.40;91.50;;;;;;5033451;28;20444;-71
2022/08/13 08:47:43;;;;;;;1999.90;999.90;;;27.40;91.60;;;;;;5033859;28;20465;-70
2022/08/13 08:50:10;;;;;;;1999.90;999.90;;;27.60;91.60;;;;;;5038951;28;20483;-71
2022/08/13 08:55:25;;;;;;;1999.90;999.90;;;27.40;92.10;;;;;;5053648;28;20459;-70
2022/08/13 08:57:53;;;;;;;1999.90;999.90;;;27.30;92.40;;;;;;5053291;28;20485;-70
2022/08/13 09:00:23;;;;;;;1999.90;999.90;;;27.40;92.00;;;;;;5053727;28;20527;-70
2022/08/13 09:02:50;;;;;;;1999.90;999.90;;;27.50;92.20;;;;;;5053699;28;20456;-71
2022/08/13 09:05:21;;;;;;;1999.90;999.90;;;27.30;92.40;;;;;;5045326;28;20473;-70
2022/08/13 09:07:49;;;;;;;1999.90;999.90;;;27.50;92.20;;;;;;5047947;28;20821;-70
2022/08/13 09:10:18;;;;;;;1999.90;999.90;;;27.60;91.90;;;;;;5053545;28;20537;-70
2022/08/13 09:12:50;;;;;;;1999.90;999.90;;;27.70;91.60;;;;;;5053511;28;20442;-70
2022/08/13 09:15:22;;;;;;;1999.90;999.90;;;27.60;91.70;;;;;;5053098;28;20454;-70
2022/08/13 09:17:50;;;;;;;1999.90;999.90;;;27.80;91.60;;;;;;5047379;28;20477;-71
2022/08/13 09:20:24;;;;;;;1999.90;999.90;;;27.90;91.40;;;;;;5043363;28;20508;-70
2022/08/13 09:23:03;;;;;;;1999.90;999.90;;;27.80;91.60;;;;;;5052789;28;20435;-70
2022/08/13 09:25:30;;;;;;;1999.90;999.90;;;27.70;91.50;;;;;;5052922;28;20439;-70
2022/08/13 09:27:58;;;;;;;1999.90;999.90;;;27.60;91.40;;;;;;5052833;28;20872;-68
2022/08/13 09:30:25;;;;;;;1999.90;999.90;;;27.80;91.40;;;;;;5046601;28;20462;-70
2022/08/13 09:32:54;;;;;;;1999.90;999.90;;;28.00;91.20;;;;;;5044633;28;20473;-70
2022/08/13 09:35:21;;;;;;;1999.90;999.90;;;28.00;91.00;;;;;;5052609;28;20446;-70
2022/08/13 09:37:50;;;;;;;1999.90;999.90;;;27.90;91.20;;;;;;5052490;28;20500;-70
2022/08/13 09:40:18;;;;;;;1999.90;999.90;;;28.00;91.30;;;;;;5052544;28;20490;-70
2022/08/13 09:42:49;;;;;;;1999.90;999.90;;;28.00;91.30;;;;;;5052793;28;20454;-71
2022/08/13 09:45:17;;;;;;;1999.90;999.90;;;27.80;91.20;;;;;;5043429;28;20466;-70
2022/08/13 09:47:43;;;;;;;1999.90;999.90;;;27.90;91.20;;;;;;5047144;28;20447;-70
2022/08/13 09:50:10;;;;;;;1999.90;999.90;;;27.90;91.30;;;;;;5052504;28;20892;-70
2022/08/13 09:52:37;;;;;;;1999.90;999.90;;;27.70;91.50;;;;;;5052779;28;20446;-70
2022/08/13 09:55:05;;;;;;;1999.90;999.90;;;27.90;91.60;;;;;;5052694;28;20980;-70
2022/08/13 09:57:32;;;;;;;1999.90;999.90;;;27.90;91.50;;;;;;5049042;28;20442;-70
2022/08/13 09:59:58;;;;;;;1999.90;999.90;;;28.20;91.10;;;;;;5048888;28;20478;-70
2022/08/13 10:02:26;;;;;;;1999.90;999.90;;;27.90;91.10;;;;;;5012780;28;20514;-70
2022/08/13 10:04:57;;;;;;;1999.90;999.90;;;27.90;91.40;;;;;;5012221;28;20932;-70
2022/08/13 10:07:23;;;;;;;1999.90;999.90;;;28.00;91.30;;;;;;5012446;28;20904;-70
2022/08/13 10:09:50;;;;;;;1999.90;999.90;;;28.20;90.90;;;;;;5012596;28;20522;-70
2022/08/13 10:12:18;;;;;;;1999.90;999.90;;;28.30;90.40;;;;;;5024105;28;20494;-70
2022/08/13 10:14:45;;;;;;;1999.90;999.90;;;28.60;89.70;;;;;;5043762;28;20512;-70
2022/08/13 10:17:11;;;;;;;1999.90;999.90;;;28.60;89.60;;;;;;5052278;28;20966;-70
2022/08/13 10:19:39;;;;;;;1999.90;999.90;;;28.60;90.10;;;;;;5048648;28;20540;-69
2022/08/13 10:22:06;;;;;;;1999.90;999.90;;;28.60;89.50;;;;;;5039602;28;20529;-68
2022/08/13 10:24:33;;;;;;;1999.90;999.90;;;28.50;89.50;;;;;;5043377;28;20516;-70
2022/08/13 10:27:00;;;;;;;1999.90;999.90;;;28.40;89.80;;;;;;5051782;28;20957;-70
2022/08/13 10:29:26;;;;;;;1999.90;999.90;;;28.50;88.40;;;;;;5050989;28;20470;-70
2022/08/13 10:31:53;;;;;;;1999.90;999.90;;;28.70;88.40;;;;;;5052005;28;20469;-70
2022/08/13 10:34:22;;;;;;;1999.90;999.90;;;28.70;86.70;;;;;;5046344;28;20905;-70
2022/08/13 10:36:50;;;;;;;1999.90;999.90;;;28.80;87.20;;;;;;5043504;28;20499;-70
2022/08/13 10:39:16;;;;;;;1999.90;999.90;;;28.70;87.00;;;;;;5051585;28;20489;-70
2022/08/13 10:41:43;;;;;;;1999.90;999.90;;;28.90;86.30;;;;;;5051821;28;20499;-70
2022/08/13 10:44:11;;;;;;;1999.90;999.90;;;28.80;86.30;;;;;;5051487;28;20938;-70
2022/08/13 10:46:37;;;;;;;1999.90;999.90;;;29.10;86.00;;;;;;5051458;28;20465;-70
2022/08/13 10:49:04;;;;;;;1999.90;999.90;;;29.20;84.40;;;;;;5035104;28;20479;-70
2022/08/13 10:51:31;;;;;;;1999.90;999.90;;;28.90;84.40;;;;;;5047412;28;20446;-71
2022/08/13 10:53:59;;;;;;;1999.90;999.90;;;29.00;84.60;;;;;;5031748;28;20481;-70
2022/08/13 10:56:28;;;;;;;1999.90;999.90;;;29.30;84.70;;;;;;5031397;28;20455;-70
2022/08/13 10:58:56;;;;;;;1999.90;999.90;;;29.60;83.20;;;;;;5030399;28;21053;-70
2022/08/13 11:01:24;;;;;;;1999.90;999.90;;;29.70;83.10;;;;;;5043077;28;20446;-70
2022/08/13 11:03:52;;;;;;;1999.90;999.90;;;29.70;83.50;;;;;;5054632;28;20850;-70
2022/08/13 11:06:19;;;;;;;1999.90;999.90;;;30.00;82.70;;;;;;5051366;28;20545;-70
2022/08/13 11:08:47;;;;;;;1999.90;999.90;;;30.10;81.90;;;;;;5051364;28;20865;-70
2022/08/13 11:11:15;;;;;;;1999.90;999.90;;;30.00;83.20;;;;;;5046771;28;20471;-71
2022/08/13 11:13:42;;;;;;;1999.90;999.90;;;30.10;83.30;;;;;;5039554;28;20483;-70
2022/08/13 11:16:56;;;;;;;1999.90;999.90;;;29.60;83.80;;;;;;5031410;28;20443;-70
2022/08/13 11:18:56;;;;;;;1999.90;999.90;;;29.40;85.20;;;;;;5031216;28;21004;-68
2022/08/13 11:21:24;;;;;;;1999.90;999.90;;;28.90;85.80;;;;;;5037926;28;20989;-68
2022/08/13 11:23:51;;;;;;;1999.90;999.90;;;28.70;86.50;;;;;;5046955;28;20454;-69
2022/08/13 11:26:19;;;;;;;1999.90;999.90;;;28.80;85.80;;;;;;5041449;28;20471;-70
2022/08/13 11:28:46;;;;;;;1999.90;999.90;;;29.30;85.80;;;;;;5042941;28;20517;-71
2022/08/13 11:31:12;;;;;;;1999.90;999.90;;;29.80;83.50;;;;;;5051209;28;20496;-71
2022/08/13 11:33:39;;;;;;;1999.90;999.90;;;29.90;82.00;;;;;;5050918;28;20442;-71
2022/08/13 11:36:06;;;;;;;1999.90;999.90;;;29.50;82.80;;;;;;5050999;28;20458;-69
2022/08/13 11:38:33;;;;;;;1999.90;999.90;;;28.90;84.00;;;;;;5065830;22;20470;-71
2022/08/13 11:41:00;;;;;;;1999.90;999.90;;;29.00;84.90;;;;;;5055262;28;20469;-71
2022/08/13 11:43:30;;;;;;;1999.90;999.90;;;29.30;84.60;;;;;;5062981;28;20446;-69
2022/08/13 11:45:57;;;;;;;1999.90;999.90;;;29.50;83.00;;;;;;5054976;28;20438;-71
2022/08/13 11:48:24;;;;;;;1999.90;999.90;;;30.00;83.10;;;;;;5054966;28;20454;-69
2022/08/13 11:50:54;;;;;;;1999.90;999.90;;;29.90;82.50;;;;;;5054625;28;20450;-69
2022/08/13 11:53:21;;;;;;;1999.90;999.90;;;29.80;83.00;;;;;;5053830;28;20541;-71
2022/08/13 11:55:47;;;;;;;1999.90;999.90;;;29.80;83.30;;;;;;5062460;28;20765;-70
2022/08/13 11:58:14;;;;;;;1999.90;999.90;;;29.50;84.40;;;;;;5073179;28;20872;-71
2022/08/13 12:00:43;;;;;;;1999.90;999.90;;;29.00;86.10;;;;;;5074586;28;20485;-71
2022/08/13 12:03:10;;;;;;;1999.90;999.90;;;28.70;87.20;;;;;;5074480;28;20956;-71
2022/08/13 12:05:37;;;;;;;1999.90;999.90;;;28.50;88.30;;;;;;5074131;28;20449;-69
2022/08/13 12:08:12;;;;;;;1999.90;999.90;;;28.50;89.00;;;;;;5068212;28;20528;-72
2022/08/13 12:10:39;;;;;;;1999.90;999.90;;;28.40;89.80;;;;;;5065564;28;20460;-70
2022/08/13 12:13:05;;;;;;;1999.90;999.90;;;28.30;90.00;;;;;;5066284;28;20986;-70
2022/08/13 12:15:32;;;;;;;1999.90;999.90;;;28.20;90.20;;;;;;5074468;28;20441;-70
2022/08/13 12:18:00;;;;;;;1999.90;999.90;;;28.20;90.50;;;;;;5074594;28;20503;-70
2022/08/13 12:20:27;;;;;;;1999.90;999.90;;;28.10;90.40;;;;;;5074610;28;20481;-69
2022/08/13 12:22:56;;;;;;;1999.90;999.90;;;28.10;90.60;;;;;;5065520;28;20465;-69